Time;durP1;ratioP1;P1;durP2;ratioP2;P2;SDS_P1;SDS_P2;PMS_P1;PMS_P2;Temp;Humidity;BMP_temperature;BMP_pressure;BME280_temperature;BME280_humidity;BME280_pressure;Samples;Min_cycle;Max_cycle;Signal;HPM_P1;HPM_P2
2023/03/24 00:03:00;;;;;;;;;;;22.10;57.00;;;;;;6135785;29;19927;-48
2023/03/24 00:06:03;;;;;;;;;;;21.90;57.50;;;;;;6136491;29;19958;-48
2023/03/24 00:09:05;;;;;;;;;;;22.00;57.50;;;;;;6136171;29;19970;-48
2023/03/24 00:12:07;;;;;;;;;;;21.80;57.30;;;;;;6136731;29;19957;-48
2023/03/24 00:15:10;;;;;;;;;;;22.10;57.60;;;;;;6134555;29;19945;-47
2023/03/24 00:18:12;;;;;;;;;;;22.20;55.70;;;;;;6133683;29;20338;-45
2023/03/24 00:21:14;;;;;;;;;;;22.10;57.70;;;;;;6135629;29;19923;-46
2023/03/24 00:24:16;;;;;;;;;;;21.90;57.60;;;;;;6136719;29;20288;-47
2023/03/24 00:27:17;;;;;;;;;;;22.00;57.70;;;;;;6137126;29;19923;-48
2023/03/24 00:30:19;;;;;;;;;;;21.80;57.50;;;;;;6134778;29;20290;-45
2023/03/24 00:33:20;;;;;;;;;;;22.20;57.60;;;;;;6135431;29;20012;-49
2023/03/24 00:36:24;;;;;;;;;;;22.00;57.60;;;;;;6136003;29;20021;-48
2023/03/24 00:39:26;;;;;;;;;;;22.10;57.70;;;;;;6135330;29;19961;-50
2023/03/24 00:42:27;;;;;;;;;;;21.70;57.50;;;;;;6133160;29;19980;-45
2023/03/24 00:45:33;;;;;;;;;;;21.80;57.70;;;;;;6134289;28;19922;-49
2023/03/24 00:48:37;;;;;;;;;;;21.60;57.50;;;;;;6137591;29;20324;-47
2023/03/24 00:51:40;;;;;;;;;;;21.90;57.70;;;;;;6136000;29;20025;-45
2023/03/24 00:54:44;;;;;;;;;;;21.80;58.20;;;;;;6136702;29;19929;-47
2023/03/24 00:57:49;;;;;;;;;;;21.80;57.50;;;;;;6136556;29;20395;-48
2023/03/24 01:00:51;;;;;;;;;;;21.70;57.60;;;;;;6135087;29;19923;-48
2023/03/24 01:03:53;;;;;;;;;;;21.80;57.50;;;;;;6139120;29;19950;-48
2023/03/24 01:06:57;;;;;;;;;;;22.10;57.80;;;;;;6136122;28;19926;-47
2023/03/24 01:09:58;;;;;;;;;;;21.70;57.50;;;;;;6133830;29;19923;-48
2023/03/24 01:13:00;;;;;;;;;;;21.70;57.60;;;;;;6133174;29;19954;-47
2023/03/24 01:16:02;;;;;;;;;;;21.80;57.50;;;;;;6135910;29;19986;-49
2023/03/24 01:19:03;;;;;;;;;;;21.80;57.70;;;;;;6140916;29;19923;-49
2023/03/24 01:22:05;;;;;;;;;;;21.60;57.40;;;;;;6139179;29;19954;-47
2023/03/24 01:25:08;;;;;;;;;;;21.50;57.50;;;;;;6137719;29;20291;-47
2023/03/24 01:28:09;;;;;;;;;;;22.00;57.60;;;;;;6136142;29;19930;-49
2023/03/24 01:31:12;;;;;;;;;;;21.90;57.70;;;;;;6135699;29;19930;-46
2023/03/24 01:34:13;;;;;;;;;;;21.70;57.60;;;;;;6138082;29;19922;-46
2023/03/24 01:37:17;;;;;;;;;;;21.90;57.30;;;;;;6137142;29;20347;-48
2023/03/24 01:40:20;;;;;;;;;;;21.80;57.80;;;;;;6138656;29;19923;-47
2023/03/24 01:43:22;;;;;;;;;;;22.10;57.70;;;;;;6140178;29;19931;-49
2023/03/24 01:46:25;;;;;;;;;;;21.70;57.50;;;;;;6141676;29;19929;-45
2023/03/24 01:49:28;;;;;;;;;;;21.30;57.50;;;;;;6141321;29;20068;-48
2023/03/24 01:52:30;;;;;;;;;;;21.60;57.50;;;;;;6141595;29;19922;-50
2023/03/24 01:55:32;;;;;;;;;;;21.70;57.60;;;;;;6142376;29;19923;-48
2023/03/24 01:58:35;;;;;;;;;;;21.40;57.60;;;;;;6140817;29;19930;-50
2023/03/24 02:01:44;;;;;;;;;;;21.60;57.50;;;;;;6140812;29;19930;-49
2023/03/24 02:05:08;;;;;;;;;;;21.90;57.60;;;;;;6143212;29;19927;-46
2023/03/24 02:08:17;;;;;;;;;;;22.20;57.70;;;;;;6132370;29;19944;-53
2023/03/24 02:11:19;;;;;;;;;;;21.90;57.60;;;;;;6177011;23;19922;-37
2023/03/24 02:14:26;;;;;;;;;;;21.40;57.30;;;;;;6153834;28;19922;-39
2023/03/24 02:17:46;;;;;;;;;;;22.20;58.40;;;;;;6154068;28;19929;-38
2023/03/24 02:21:00;;;;;;;;;;;21.50;57.40;;;;;;6152912;29;19923;-38
2023/03/24 02:24:16;;;;;;;;;;;21.50;57.30;;;;;;6154040;28;20370;-37
2023/03/24 02:27:26;;;;;;;;;;;21.50;57.30;;;;;;6153321;29;19973;-38
2023/03/24 02:30:39;;;;;;;;;;;21.80;57.50;;;;;;6154140;28;19929;-38
2023/03/24 02:33:55;;;;;;;;;;;21.50;57.30;;;;;;6153907;28;19922;-39
2023/03/24 02:37:06;;;;;;;;;;;21.40;57.20;;;;;;6152650;29;19974;-37
2023/03/24 02:40:18;;;;;;;;;;;22.40;57.80;;;;;;6153849;29;19929;-38
2023/03/24 02:43:30;;;;;;;;;;;21.40;57.20;;;;;;6153718;28;19923;-37
2023/03/24 02:46:36;;;;;;;;;;;21.60;57.30;;;;;;6153780;28;19930;-38
2023/03/24 02:49:42;;;;;;;;;;;21.40;57.30;;;;;;6153671;28;19926;-38
2023/03/24 02:52:45;;;;;;;;;;;21.40;57.30;;;;;;6153250;28;20069;-38
2023/03/24 02:55:51;;;;;;;;;;;21.60;57.40;;;;;;6153603;28;19922;-38
2023/03/24 02:58:56;;;;;;;;;;;21.50;57.40;;;;;;6153800;28;20371;-38
2023/03/24 03:02:01;;;;;;;;;;;21.70;57.70;;;;;;6153654;28;19930;-38
2023/03/24 03:05:12;;;;;;;;;;;21.30;57.40;;;;;;6153409;28;19922;-38
2023/03/24 03:08:19;;;;;;;;;;;21.50;57.50;;;;;;6153097;28;19930;-40
2023/03/24 03:11:21;;;;;;;;;;;22.20;57.90;;;;;;6152087;28;19973;-40
2023/03/24 03:14:27;;;;;;;;;;;21.60;57.50;;;;;;6153243;28;20259;-38
2023/03/24 03:17:30;;;;;;;;;;;21.40;57.30;;;;;;6153034;28;19964;-39
2023/03/24 03:20:33;;;;;;;;;;;21.40;57.30;;;;;;6151947;28;19923;-38
2023/03/24 03:23:37;;;;;;;;;;;22.00;57.70;;;;;;6151739;29;20386;-38
2023/03/24 03:26:40;;;;;;;;;;;21.40;57.30;;;;;;6152768;28;19922;-39
2023/03/24 03:29:45;;;;;;;;;;;21.50;57.50;;;;;;6153172;28;19923;-40
2023/03/24 03:32:53;;;;;;;;;;;21.50;57.40;;;;;;6151709;28;19930;-38
2023/03/24 03:35:57;;;;;;;;;;;21.20;57.30;;;;;;6153443;29;19981;-38
2023/03/24 03:39:02;;;;;;;;;;;21.40;57.20;;;;;;6153008;28;20013;-38
2023/03/24 03:42:06;;;;;;;;;;;22.00;57.70;;;;;;6152488;28;20364;-38
2023/03/24 03:45:10;;;;;;;;;;;21.30;57.30;;;;;;6152611;28;19923;-38
2023/03/24 03:48:12;;;;;;;;;;;21.30;57.30;;;;;;6152906;28;19929;-38
2023/03/24 03:51:14;;;;;;;;;;;21.30;57.40;;;;;;6151469;29;19977;-38
2023/03/24 03:54:25;;;;;;;;;;;21.60;57.60;;;;;;6152542;28;20371;-38
2023/03/24 03:57:26;;;;;;;;;;;21.30;57.20;;;;;;6152749;28;19922;-39
2023/03/24 04:00:47;;;;;;;;;;;21.30;57.40;;;;;;6152445;28;19922;-38
2023/03/24 04:04:20;;;;;;;;;;;21.40;57.40;;;;;;6151686;28;19923;-38
2023/03/24 04:12:23;;;;;;;;;;;21.70;55.00;;;;;;6152385;28;19915;-39
2023/03/24 04:15:45;;;;;;;;;;;21.60;57.40;;;;;;6151924;28;20378;-38
2023/03/24 04:19:10;;;;;;;;;;;21.80;55.40;;;;;;6151056;29;20021;-38
2023/03/24 04:22:20;;;;;;;;;;;21.10;57.20;;;;;;6152677;28;19929;-38
2023/03/24 04:25:29;;;;;;;;;;;21.60;54.90;;;;;;6152474;28;19957;-39
2023/03/24 04:28:37;;;;;;;;;;;21.20;57.20;;;;;;6151884;28;19922;-38
2023/03/24 04:31:41;;;;;;;;;;;21.30;54.70;;;;;;6151730;28;19948;-38
2023/03/24 04:34:49;;;;;;;;;;;21.30;57.40;;;;;;6151985;28;20041;-41
2023/03/24 04:38:08;;;;;;;;;;;21.30;57.50;;;;;;6150755;29;19929;-39
2023/03/24 04:41:10;;;;;;;;;;;21.30;57.30;;;;;;6150301;28;20301;-38
2023/03/24 04:44:16;;;;;;;;;;;21.30;57.40;;;;;;6151939;28;20298;-37
2023/03/24 04:47:41;;;;;;;;;;;21.20;57.20;;;;;;6151647;28;19934;-38
2023/03/24 04:51:04;;;;;;;;;;;21.70;56.90;;;;;;6151402;28;19976;-38
2023/03/24 04:54:26;;;;;;;;;;;21.70;57.70;;;;;;6151693;28;19926;-38
2023/03/24 04:57:35;;;;;;;;;;;21.80;57.70;;;;;;6151313;28;19922;-38
2023/03/24 05:00:40;;;;;;;;;;;21.20;57.40;;;;;;6151039;28;19923;-38
2023/03/24 05:03:44;;;;;;;;;;;21.20;57.30;;;;;;6149432;28;19922;-38
2023/03/24 05:06:48;;;;;;;;;;;21.10;57.30;;;;;;6151921;28;19929;-38
2023/03/24 05:09:52;;;;;;;;;;;21.20;57.30;;;;;;6150929;28;19922;-38
2023/03/24 05:12:59;;;;;;;;;;;21.20;57.40;;;;;;6151366;28;20285;-39
2023/03/24 05:20:53;;;;;;;;;;;21.60;54.90;;;;;;6150594;29;19948;-38
2023/03/24 05:23:57;;;;;;;;;;;21.20;57.30;;;;;;6150869;28;19929;-38
2023/03/24 05:26:59;;;;;;;;;;;21.90;57.70;;;;;;6151240;28;20009;-38
2023/03/24 05:30:00;;;;;;;;;;;21.20;57.30;;;;;;6150821;28;20009;-37
2023/03/24 05:33:06;;;;;;;;;;;21.30;57.50;;;;;;6150832;28;20393;-39
2023/03/24 05:36:11;;;;;;;;;;;21.20;57.40;;;;;;6149655;29;19929;-37
2023/03/24 05:39:14;;;;;;;;;;;21.40;57.30;;;;;;6150554;28;19922;-38
2023/03/24 05:42:25;;;;;;;;;;;21.20;57.30;;;;;;6150643;28;19977;-38
2023/03/24 05:45:28;;;;;;;;;;;21.30;57.50;;;;;;6151046;28;19923;-39
2023/03/24 05:48:29;;;;;;;;;;;21.10;57.30;;;;;;6150733;28;20033;-38
2023/03/24 05:51:51;;;;;;;;;;;21.20;57.30;;;;;;6150660;28;19945;-38
2023/03/24 05:54:53;;;;;;;;;;;21.30;54.60;;;;;;6150473;28;19954;-39
2023/03/24 05:58:00;;;;;;;;;;;21.70;56.90;;;;;;6150754;28;19922;-38
2023/03/24 06:01:09;;;;;;;;;;;21.20;57.20;;;;;;6150422;29;19922;-38
2023/03/24 06:04:12;;;;;;;;;;;21.90;57.70;;;;;;6150093;28;19923;-38
2023/03/24 06:07:14;;;;;;;;;;;21.30;57.00;;;;;;6150597;28;19930;-38
2023/03/24 06:10:18;;;;;;;;;;;22.10;57.80;;;;;;6150353;28;19923;-38
2023/03/24 06:13:24;;;;;;;;;;;21.30;57.50;;;;;;6150030;28;19957;-38
2023/03/24 06:16:28;;;;;;;;;;;21.50;57.50;;;;;;6150495;28;20286;-38
2023/03/24 06:19:37;;;;;;;;;;;20.90;55.50;;;;;;6150031;28;20354;-38
2023/03/24 06:22:57;;;;;;;;;;;21.90;57.80;;;;;;6150133;28;20404;-38
2023/03/24 06:26:07;;;;;;;;;;;21.70;54.90;;;;;;6149888;28;19922;-38
2023/03/24 06:29:17;;;;;;;;;;;21.10;57.30;;;;;;6151232;28;19930;-38
2023/03/24 06:32:18;;;;;;;;;;;21.30;57.10;;;;;;6152976;29;19923;-38
2023/03/24 06:35:20;;;;;;;;;;;21.60;56.90;;;;;;6153829;28;19922;-38
2023/03/24 06:38:27;;;;;;;;;;;21.10;57.40;;;;;;6154163;28;19922;-37
2023/03/24 06:41:30;;;;;;;;;;;21.90;57.70;;;;;;6153855;28;19922;-38
2023/03/24 06:44:34;;;;;;;;;;;21.20;57.30;;;;;;6153656;29;19929;-38
2023/03/24 06:47:36;;;;;;;;;;;21.10;57.30;;;;;;6153979;28;19933;-38
2023/03/24 06:50:39;;;;;;;;;;;21.10;57.20;;;;;;6152664;29;19922;-39
2023/03/24 06:53:45;;;;;;;;;;;22.20;57.80;;;;;;6153511;28;19929;-37
2023/03/24 06:56:49;;;;;;;;;;;21.30;55.50;;;;;;6153808;28;19922;-38
2023/03/24 06:59:52;;;;;;;;;;;22.00;57.60;;;;;;6153763;29;19926;-38
2023/03/24 07:03:01;;;;;;;;;;;21.10;56.60;;;;;;6152228;28;19929;-38
2023/03/24 07:06:03;;;;;;;;;;;22.00;57.60;;;;;;6153407;28;20290;-39
2023/03/24 07:09:05;;;;;;;;;;;21.10;57.00;;;;;;6153166;28;20306;-38
2023/03/24 07:12:07;;;;;;;;;;;21.50;57.60;;;;;;6167780;28;19922;-38
2023/03/24 07:15:10;;;;;;;;;;;21.10;57.00;;;;;;6153239;28;19922;-39
2023/03/24 07:18:12;;;;;;;;;;;22.10;57.50;;;;;;6153155;28;19922;-38
2023/03/24 07:21:17;;;;;;;;;;;21.10;56.90;;;;;;6152873;28;19922;-39
2023/03/24 07:24:20;;;;;;;;;;;21.70;57.30;;;;;;6153262;28;19930;-38
2023/03/24 07:27:32;;;;;;;;;;;21.20;56.90;;;;;;6153057;28;19929;-39
2023/03/24 07:30:34;;;;;;;;;;;22.00;57.30;;;;;;6152858;28;20283;-40
2023/03/24 07:33:43;;;;;;;;;;;21.20;56.60;;;;;;6152662;28;19934;-39
2023/03/24 07:36:44;;;;;;;;;;;22.00;57.40;;;;;;6152880;28;19946;-37
2023/03/24 07:39:49;;;;;;;;;;;21.20;56.90;;;;;;6151027;28;20370;-38
2023/03/24 07:42:51;;;;;;;;;;;21.90;57.40;;;;;;6152381;28;20302;-38
2023/03/24 07:46:09;;;;;;;;;;;21.40;56.90;;;;;;6152551;28;20377;-39
2023/03/24 07:49:12;;;;;;;;;;;21.40;56.80;;;;;;6152531;28;19973;-38
2023/03/24 07:52:29;;;;;;;;;;;21.20;56.70;;;;;;6152296;28;20017;-37
2023/03/24 07:55:30;;;;;;;;;;;21.80;56.50;;;;;;6152506;28;19923;-39
2023/03/24 07:58:37;;;;;;;;;;;21.30;56.60;;;;;;6152051;28;19977;-37
2023/03/24 08:01:50;;;;;;;;;;;21.80;56.90;;;;;;6151962;28;19922;-37
2023/03/24 08:05:12;;;;;;;;;;;21.40;56.70;;;;;;6151737;28;20005;-38
2023/03/24 08:08:23;;;;;;;;;;;21.90;56.80;;;;;;6152025;28;19930;-38
2023/03/24 08:11:25;;;;;;;;;;;21.40;56.20;;;;;;6152385;28;19929;-38
2023/03/24 08:14:27;;;;;;;;;;;22.30;57.10;;;;;;6151955;28;19927;-37
2023/03/24 08:17:28;;;;;;;;;;;21.40;56.50;;;;;;6151941;28;19973;-37
2023/03/24 08:20:32;;;;;;;;;;;22.00;56.90;;;;;;6151778;28;20370;-37
2023/03/24 08:23:35;;;;;;;;;;;21.40;54.60;;;;;;6166498;28;19922;-37
2023/03/24 08:26:36;;;;;;;;;;;21.80;55.90;;;;;;6151909;29;20346;-38
2023/03/24 08:29:39;;;;;;;;;;;21.80;56.30;;;;;;6151396;28;19922;-37
2023/03/24 08:32:42;;;;;;;;;;;22.20;57.40;;;;;;6151732;28;19929;-38
2023/03/24 08:35:45;;;;;;;;;;;21.40;56.10;;;;;;6150308;29;20030;-37
2023/03/24 08:38:47;;;;;;;;;;;22.20;56.70;;;;;;6151604;28;20248;-39
2023/03/24 08:41:53;;;;;;;;;;;21.50;56.20;;;;;;6151242;28;20386;-37
2023/03/24 08:44:57;;;;;;;;;;;22.40;56.70;;;;;;6151540;28;19926;-37
2023/03/24 08:48:00;;;;;;;;;;;21.50;56.20;;;;;;6151227;28;20315;-37
2023/03/24 08:51:08;;;;;;;;;;;22.30;56.40;;;;;;6149502;28;20303;-37
2023/03/24 08:54:12;;;;;;;;;;;21.60;55.90;;;;;;6150711;29;20013;-37
2023/03/24 08:57:15;;;;;;;;;;;22.30;56.50;;;;;;6151174;28;19930;-37
2023/03/24 09:00:18;;;;;;;;;;;21.50;55.90;;;;;;6151568;28;19977;-38
2023/03/24 09:03:20;;;;;;;;;;;22.30;56.30;;;;;;6151274;28;20378;-37
2023/03/24 09:06:22;;;;;;;;;;;21.60;55.70;;;;;;6151002;28;19922;-37
2023/03/24 09:09:24;;;;;;;;;;;22.10;55.50;;;;;;6150953;28;19961;-38
2023/03/24 09:12:25;;;;;;;;;;;21.70;55.70;;;;;;6151084;28;19922;-37
2023/03/24 09:15:31;;;;;;;;;;;22.30;56.30;;;;;;6151020;28;19930;-37
2023/03/24 09:18:33;;;;;;;;;;;21.60;55.90;;;;;;6119649;29;19922;-38
2023/03/24 09:21:35;;;;;;;;;;;21.70;55.80;;;;;;6150415;28;19927;-37
2023/03/24 09:24:37;;;;;;;;;;;21.90;55.80;;;;;;6151237;28;20445;-38
2023/03/24 09:27:38;;;;;;;;;;;22.20;56.00;;;;;;6150664;28;19922;-37
2023/03/24 09:30:41;;;;;;;;;;;21.60;55.60;;;;;;6151105;28;20282;-37
2023/03/24 09:33:42;;;;;;;;;;;22.20;55.90;;;;;;6150656;28;19934;-37
2023/03/24 09:36:43;;;;;;;;;;;21.90;55.50;;;;;;6150371;28;19929;-37
2023/03/24 09:39:44;;;;;;;;;;;22.50;56.00;;;;;;6150243;28;20362;-37
2023/03/24 09:42:49;;;;;;;;;;;21.60;55.50;;;;;;6150477;28;19926;-37
2023/03/24 09:45:52;;;;;;;;;;;22.50;55.90;;;;;;6149823;29;20362;-37
2023/03/24 09:48:55;;;;;;;;;;;21.80;55.60;;;;;;6150521;28;19934;-37
2023/03/24 09:52:01;;;;;;;;;;;22.60;55.90;;;;;;6150382;28;20394;-38
2023/03/24 09:55:05;;;;;;;;;;;22.10;55.60;;;;;;6150798;28;19922;-38
2023/03/24 09:58:07;;;;;;;;;;;22.30;55.50;;;;;;6148908;28;20025;-37
2023/03/24 10:01:13;;;;;;;;;;;21.90;55.30;;;;;;6150134;28;19961;-38
2023/03/24 10:04:15;;;;;;;;;;;22.30;55.40;;;;;;6151292;28;19922;-37
2023/03/24 10:07:21;;;;;;;;;;;22.00;55.40;;;;;;6154069;28;19929;-37
2023/03/24 10:10:27;;;;;;;;;;;22.70;55.70;;;;;;6154413;28;19929;-37
2023/03/24 10:13:34;;;;;;;;;;;21.80;55.30;;;;;;6154073;28;20377;-37
2023/03/24 10:16:40;;;;;;;;;;;22.30;55.30;;;;;;6153965;28;19933;-37
2023/03/24 10:19:47;;;;;;;;;;;22.40;55.60;;;;;;6154582;28;19945;-37
2023/03/24 10:22:55;;;;;;;;;;;21.50;55.00;;;;;;6154029;28;20429;-37
2023/03/24 10:26:03;;;;;;;;;;;22.50;55.40;;;;;;6153870;28;20441;-38
2023/03/24 10:29:16;;;;;;;;;;;21.90;55.00;;;;;;6152629;29;20298;-37
2023/03/24 10:32:21;;;;;;;;;;;22.40;55.20;;;;;;6153838;28;19923;-37
2023/03/24 10:35:23;;;;;;;;;;;21.90;55.30;;;;;;6153683;29;19926;-38
2023/03/24 10:38:25;;;;;;;;;;;22.50;55.40;;;;;;6153489;28;19922;-37
2023/03/24 10:41:27;;;;;;;;;;;22.40;55.30;;;;;;6153728;28;19923;-37
2023/03/24 10:44:29;;;;;;;;;;;22.60;55.40;;;;;;6153717;28;19933;-37
2023/03/24 10:47:32;;;;;;;;;;;21.90;55.00;;;;;;6153707;28;20387;-37
2023/03/24 10:50:34;;;;;;;;;;;22.40;53.30;;;;;;6152288;28;19922;-37
2023/03/24 10:53:36;;;;;;;;;;;22.00;54.90;;;;;;6153732;28;19926;-37
2023/03/24 10:56:40;;;;;;;;;;;22.40;55.30;;;;;;6153334;28;19929;-38
2023/03/24 10:59:49;;;;;;;;;;;22.10;55.00;;;;;;6152111;29;19937;-38
2023/03/24 11:02:55;;;;;;;;;;;22.20;54.90;;;;;;6153154;28;19922;-37
2023/03/24 11:05:58;;;;;;;;;;;22.00;54.80;;;;;;6153057;28;19922;-37
2023/03/24 11:09:08;;;;;;;;;;;22.80;55.30;;;;;;6152366;28;19922;-37
2023/03/24 11:12:19;;;;;;;;;;;22.10;55.50;;;;;;6152817;28;19922;-38
2023/03/24 11:15:21;;;;;;;;;;;22.70;55.10;;;;;;6152656;28;19991;-37
2023/03/24 11:18:25;;;;;;;;;;;22.30;55.00;;;;;;6152399;29;19922;-38
2023/03/24 11:21:27;;;;;;;;;;;22.90;55.50;;;;;;6152828;28;19926;-38
2023/03/24 11:24:28;;;;;;;;;;;22.00;54.80;;;;;;6153354;29;19923;-37
2023/03/24 11:27:30;;;;;;;;;;;22.70;55.20;;;;;;6167626;28;19973;-37
2023/03/24 11:30:33;;;;;;;;;;;22.00;54.90;;;;;;6152719;28;19961;-37
2023/03/24 11:33:42;;;;;;;;;;;22.50;54.90;;;;;;6153045;28;19935;-38
2023/03/24 11:36:47;;;;;;;;;;;22.10;54.70;;;;;;6152602;28;19930;-37
2023/03/24 11:40:09;;;;;;;;;;;22.60;55.00;;;;;;6152567;28;19922;-37
2023/03/24 11:43:18;;;;;;;;;;;22.10;54.70;;;;;;6151495;29;19930;-38
2023/03/24 11:46:20;;;;;;;;;;;23.10;55.20;;;;;;6151161;29;20017;-38
2023/03/24 11:49:25;;;;;;;;;;;22.00;54.60;;;;;;6152460;28;19922;-37
2023/03/24 11:52:29;;;;;;;;;;;22.90;55.20;;;;;;6152200;28;19926;-38
2023/03/24 11:55:33;;;;;;;;;;;22.20;54.80;;;;;;6151918;29;19962;-38
2023/03/24 11:58:36;;;;;;;;;;;22.40;54.70;;;;;;6152216;28;19961;-38
2023/03/24 12:01:41;;;;;;;;;;;22.20;54.70;;;;;;6152643;29;20322;-37
2023/03/24 12:04:50;;;;;;;;;;;22.70;54.90;;;;;;6153179;28;19929;-38
2023/03/24 12:08:06;;;;;;;;;;;22.50;54.80;;;;;;6152042;28;19922;-38
2023/03/24 12:11:10;;;;;;;;;;;22.50;54.80;;;;;;6151533;28;19923;-37
2023/03/24 12:14:12;;;;;;;;;;;22.10;54.50;;;;;;6152176;28;19922;-38
2023/03/24 12:17:14;;;;;;;;;;;22.80;54.90;;;;;;6152368;28;19938;-37
2023/03/24 12:20:19;;;;;;;;;;;22.20;54.60;;;;;;6150435;29;19973;-37
2023/03/24 12:23:27;;;;;;;;;;;22.80;54.90;;;;;;6152222;28;19949;-38
2023/03/24 12:26:29;;;;;;;;;;;22.70;52.20;;;;;;6151000;28;19957;-38
2023/03/24 12:29:39;;;;;;;;;;;22.70;54.90;;;;;;6151562;28;19922;-38
2023/03/24 12:32:51;;;;;;;;;;;22.20;54.50;;;;;;6151947;28;19957;-38
2023/03/24 12:36:00;;;;;;;;;;;23.10;55.00;;;;;;6150240;29;19922;-38
2023/03/24 12:39:03;;;;;;;;;;;22.20;54.60;;;;;;6151461;28;19965;-37
2023/03/24 12:42:06;;;;;;;;;;;22.80;55.00;;;;;;6151509;29;20387;-39
2023/03/24 12:45:19;;;;;;;;;;;22.20;54.60;;;;;;6151499;28;20429;-38
2023/03/24 12:48:36;;;;;;;;;;;22.70;54.20;;;;;;6151309;28;19922;-38
2023/03/24 12:51:43;;;;;;;;;;;22.30;54.50;;;;;;6150889;28;19922;-38
2023/03/24 12:54:49;;;;;;;;;;;22.60;54.20;;;;;;6151452;28;20433;-38
2023/03/24 12:57:56;;;;;;;;;;;22.20;54.50;;;;;;6150334;29;19922;-38
2023/03/24 13:01:05;;;;;;;;;;;23.00;54.90;;;;;;6151396;28;19922;-38
2023/03/24 13:04:09;;;;;;;;;;;22.30;54.60;;;;;;6151082;28;19926;-38
2023/03/24 13:07:13;;;;;;;;;;;23.00;54.90;;;;;;6151300;28;20434;-37
2023/03/24 13:10:19;;;;;;;;;;;22.10;54.60;;;;;;6151376;28;20401;-38
2023/03/24 13:13:21;;;;;;;;;;;23.00;55.00;;;;;;6150673;28;19926;-37
2023/03/24 13:16:26;;;;;;;;;;;22.30;54.60;;;;;;6150259;29;19982;-38
2023/03/24 13:19:28;;;;;;;;;;;23.00;55.20;;;;;;6151034;28;19932;-37
2023/03/24 13:22:30;;;;;;;;;;;22.20;54.60;;;;;;6165581;28;19929;-38
2023/03/24 13:25:45;;;;;;;;;;;22.40;54.50;;;;;;6150666;28;19930;-38
2023/03/24 13:28:50;;;;;;;;;;;22.20;54.60;;;;;;6150856;28;19922;-39
2023/03/24 13:31:53;;;;;;;;;;;22.60;54.70;;;;;;6150578;28;20275;-38
2023/03/24 13:34:57;;;;;;;;;;;22.30;54.50;;;;;;6150565;28;19933;-38
2023/03/24 13:38:02;;;;;;;;;;;22.90;54.80;;;;;;6153440;28;19929;-38
2023/03/24 13:41:05;;;;;;;;;;;22.30;54.60;;;;;;6154279;28;19926;-38
2023/03/24 13:44:08;;;;;;;;;;;22.60;54.70;;;;;;6154679;28;19930;-39
2023/03/24 13:47:12;;;;;;;;;;;22.20;54.50;;;;;;6153282;29;19922;-38
2023/03/24 13:50:16;;;;;;;;;;;22.40;54.60;;;;;;6153410;28;19923;-38
2023/03/24 13:53:24;;;;;;;;;;;22.30;54.50;;;;;;6154467;28;19929;-38
2023/03/24 13:56:32;;;;;;;;;;;22.60;54.60;;;;;;6154362;28;19922;-38
2023/03/24 13:59:39;;;;;;;;;;;22.10;54.30;;;;;;6154652;28;20012;-37
2023/03/24 14:02:41;;;;;;;;;;;22.70;54.40;;;;;;6154977;28;19986;-38
2023/03/24 14:05:58;;;;;;;;;;;22.40;54.30;;;;;;6154154;28;20021;-37
2023/03/24 14:09:03;;;;;;;;;;;22.90;54.50;;;;;;6153021;28;20294;-38
2023/03/24 14:12:18;;;;;;;;;;;22.20;54.30;;;;;;6152946;28;19922;-37
2023/03/24 14:15:20;;;;;;;;;;;23.00;54.60;;;;;;6154147;28;19950;-38
2023/03/24 14:18:36;;;;;;;;;;;22.30;54.30;;;;;;6153056;29;19922;-37
2023/03/24 14:21:40;;;;;;;;;;;21.40;53.90;;;;;;6153691;28;19922;-37
2023/03/24 14:24:43;;;;;;;;;;;22.30;54.30;;;;;;6154470;28;20094;-38
2023/03/24 14:27:46;;;;;;;;;;;23.20;54.80;;;;;;6153766;28;19929;-37
2023/03/24 14:31:00;;;;;;;;;;;22.30;54.20;;;;;;6153189;29;19949;-39
2023/03/24 14:34:09;;;;;;;;;;;23.00;54.50;;;;;;6154261;28;19922;-37
2023/03/24 14:37:13;;;;;;;;;;;22.50;54.20;;;;;;6152567;29;19929;-37
2023/03/24 14:40:22;;;;;;;;;;;23.30;54.60;;;;;;6153699;28;19965;-38
2023/03/24 14:43:40;;;;;;;;;;;22.70;54.10;;;;;;6153495;28;20334;-38
2023/03/24 14:46:42;;;;;;;;;;;22.70;51.60;;;;;;6153568;28;20010;-37
2023/03/24 14:49:45;;;;;;;;;;;22.40;54.00;;;;;;6151778;28;20362;-37
2023/03/24 14:52:49;;;;;;;;;;;22.80;54.10;;;;;;6152311;29;19930;-37
2023/03/24 14:55:51;;;;;;;;;;;22.50;54.00;;;;;;6152641;29;20291;-38
2023/03/24 14:58:55;;;;;;;;;;;22.90;54.80;;;;;;6152362;28;19923;-37
2023/03/24 15:01:59;;;;;;;;;;;22.40;53.90;;;;;;6153189;28;19926;-38
2023/03/24 15:05:16;;;;;;;;;;;22.70;54.10;;;;;;6153435;28;19922;-38
2023/03/24 15:08:20;;;;;;;;;;;22.40;53.90;;;;;;6121725;29;20358;-38
2023/03/24 15:11:25;;;;;;;;;;;23.20;54.30;;;;;;6151885;28;19927;-39
2023/03/24 15:14:27;;;;;;;;;;;22.50;53.90;;;;;;6153475;28;19981;-38
2023/03/24 15:17:28;;;;;;;;;;;23.20;54.30;;;;;;6152921;28;19923;-37
2023/03/24 15:20:31;;;;;;;;;;;22.30;54.00;;;;;;6152885;28;19989;-37
2023/03/24 15:23:36;;;;;;;;;;;23.10;54.10;;;;;;6152395;29;20255;-38
2023/03/24 15:26:38;;;;;;;;;;;22.40;53.50;;;;;;6152544;28;19926;-37
2023/03/24 15:29:41;;;;;;;;;;;23.20;54.40;;;;;;6152885;28;19923;-38
2023/03/24 15:32:46;;;;;;;;;;;22.40;53.90;;;;;;6151465;28;20358;-37
2023/03/24 15:35:55;;;;;;;;;;;23.10;54.20;;;;;;6152568;28;19930;-37
2023/03/24 15:38:57;;;;;;;;;;;22.40;53.80;;;;;;6151346;29;19926;-38
2023/03/24 15:41:59;;;;;;;;;;;22.90;54.00;;;;;;6152309;28;19929;-38
2023/03/24 15:45:07;;;;;;;;;;;22.50;53.90;;;;;;6152382;28;19938;-37
2023/03/24 15:48:13;;;;;;;;;;;23.00;53.00;;;;;;6152581;28;19922;-38
2023/03/24 15:51:14;;;;;;;;;;;22.30;53.60;;;;;;6152393;28;19922;-37
2023/03/24 15:54:19;;;;;;;;;;;23.20;54.30;;;;;;6152919;28;20410;-38
2023/03/24 15:57:22;;;;;;;;;;;22.40;53.70;;;;;;6152797;28;19950;-37
2023/03/24 16:00:24;;;;;;;;;;;22.90;53.60;;;;;;6151268;28;19922;-37
2023/03/24 16:03:25;;;;;;;;;;;22.40;53.80;;;;;;6150663;29;20382;-38
2023/03/24 16:06:29;;;;;;;;;;;23.10;54.20;;;;;;6152217;28;19929;-38
2023/03/24 16:09:36;;;;;;;;;;;22.40;53.80;;;;;;6152318;28;20295;-38
2023/03/24 16:12:38;;;;;;;;;;;23.00;54.00;;;;;;6151175;28;20376;-38
2023/03/24 16:15:41;;;;;;;;;;;22.40;54.10;;;;;;6152313;28;19929;-37
2023/03/24 16:18:43;;;;;;;;;;;23.10;54.00;;;;;;6152046;28;19926;-38
2023/03/24 16:21:44;;;;;;;;;;;22.20;53.60;;;;;;6166759;28;19926;-38
2023/03/24 16:24:47;;;;;;;;;;;23.00;54.20;;;;;;6151457;28;19957;-39
2023/03/24 16:27:49;;;;;;;;;;;22.50;53.80;;;;;;6151803;28;19923;-37
2023/03/24 16:30:54;;;;;;;;;;;22.90;54.10;;;;;;6152448;28;20438;-38
2023/03/24 16:33:56;;;;;;;;;;;22.40;53.60;;;;;;6151532;28;20322;-38
2023/03/24 16:36:59;;;;;;;;;;;23.20;54.00;;;;;;6150497;28;19929;-37
2023/03/24 16:40:00;;;;;;;;;;;22.40;53.70;;;;;;6151583;28;19926;-38
2023/03/24 16:43:05;;;;;;;;;;;22.80;53.70;;;;;;6151358;28;19929;-38
2023/03/24 16:46:12;;;;;;;;;;;22.40;53.70;;;;;;6151689;28;20082;-38
2023/03/24 16:49:14;;;;;;;;;;;22.90;53.90;;;;;;6151396;28;19922;-37
2023/03/24 16:52:16;;;;;;;;;;;22.70;53.70;;;;;;6150056;29;20009;-37
2023/03/24 16:55:19;;;;;;;;;;;22.80;54.00;;;;;;6151556;28;19930;-38
2023/03/24 16:58:21;;;;;;;;;;;22.40;53.70;;;;;;6151811;28;20387;-38
2023/03/24 17:01:27;;;;;;;;;;;23.00;53.90;;;;;;6149811;29;19929;-38
2023/03/24 17:04:32;;;;;;;;;;;22.50;53.50;;;;;;6150189;29;19928;-38
2023/03/24 17:07:33;;;;;;;;;;;22.80;53.90;;;;;;6151129;28;19965;-38
2023/03/24 17:10:35;;;;;;;;;;;22.30;53.60;;;;;;6151070;28;20394;-38
2023/03/24 17:13:37;;;;;;;;;;;22.80;53.60;;;;;;6150824;28;20311;-38
2023/03/24 17:16:42;;;;;;;;;;;22.50;53.60;;;;;;6150950;28;19977;-38
2023/03/24 17:19:46;;;;;;;;;;;22.70;53.60;;;;;;6149867;28;19922;-38
2023/03/24 17:22:49;;;;;;;;;;;22.40;53.50;;;;;;6151207;28;19969;-38
2023/03/24 17:25:50;;;;;;;;;;;23.10;53.80;;;;;;6150975;28;19922;-38
2023/03/24 17:28:52;;;;;;;;;;;22.30;53.50;;;;;;6150617;28;19929;-39
2023/03/24 17:31:54;;;;;;;;;;;23.00;53.80;;;;;;6149550;29;20331;-40
2023/03/24 17:34:55;;;;;;;;;;;22.30;53.40;;;;;;6149566;29;19949;-38
2023/03/24 17:37:56;;;;;;;;;;;23.00;54.00;;;;;;6150760;28;19930;-38
2023/03/24 17:40:59;;;;;;;;;;;22.40;53.60;;;;;;6150909;28;19926;-38
2023/03/24 17:44:03;;;;;;;;;;;23.10;53.90;;;;;;6150670;28;20017;-38
2023/03/24 17:47:04;;;;;;;;;;;22.40;53.60;;;;;;6149457;29;19922;-38
2023/03/24 17:50:08;;;;;;;;;;;22.90;53.10;;;;;;6150886;28;19922;-38
2023/03/24 17:53:12;;;;;;;;;;;22.30;53.40;;;;;;6150570;28;19922;-38
2023/03/24 17:56:13;;;;;;;;;;;22.80;53.80;;;;;;6150493;28;20291;-38
2023/03/24 17:59:15;;;;;;;;;;;22.30;53.60;;;;;;6150314;28;19973;-38
2023/03/24 18:02:17;;;;;;;;;;;23.10;54.00;;;;;;6150440;28;19934;-38
2023/03/24 18:05:20;;;;;;;;;;;22.40;53.60;;;;;;6150439;28;20017;-39
2023/03/24 18:08:21;;;;;;;;;;;22.90;53.90;;;;;;6150150;28;19922;-38